Time;durP1;ratioP1;P1;durP2;ratioP2;P2;SDS_P1;SDS_P2;PMS_P1;PMS_P2;Temp;Humidity;BMP_temperature;BMP_pressure;BME280_temperature;BME280_humidity;BME280_pressure;Samples;Min_cycle;Max_cycle;Signal;HPM_P1;HPM_P2
2022/08/05 00:01:23;;;;;;;9.85;2.45;;;;;;;;;;5021821;28;20077;-77
2022/08/05 00:03:55;;;;;;;8.98;2.28;;;;;;;;;;5018595;28;20504;-77
2022/08/05 00:06:23;;;;;;;5.75;1.98;;;;;;;;;;5024036;28;20050;-77
2022/08/05 00:08:59;;;;;;;14.68;2.30;;;;;;;;;;5016732;28;20471;-76
2022/08/05 00:11:27;;;;;;;6.38;2.00;;;;;;;;;;5016787;28;20046;-76
2022/08/05 00:14:01;;;;;;;11.10;2.72;;;;;;;;;;5016136;28;20047;-77
2022/08/05 00:16:43;;;;;;;11.75;2.60;;;;;;;;;;5025000;28;20176;-77
2022/08/05 00:19:19;;;;;;;9.13;2.33;;;;;;;;;;5018185;28;20042;-77
2022/08/05 00:21:48;;;;;;;6.75;2.05;;;;;;;;;;5017392;28;20579;-77
2022/08/05 00:24:15;;;;;;;15.10;2.70;;;;;;;;;;5017109;28;20105;-77
2022/08/05 00:26:50;;;;;;;5.70;2.03;;;;;;;;;;5026703;28;20058;-77
2022/08/05 00:29:19;;;;;;;7.22;2.00;;;;;;;;;;5017083;28;20112;-78
2022/08/05 00:31:53;;;;;;;8.30;2.30;;;;;;;;;;5012986;28;20050;-77
2022/08/05 00:34:41;;;;;;;8.77;2.72;;;;;;;;;;5018649;28;20057;-77
2022/08/05 00:37:28;;;;;;;7.85;2.08;;;;;;;;;;5020205;28;20097;-77
2022/08/05 00:40:15;;;;;;;11.35;2.47;;;;;;;;;;5019782;28;20054;-77
2022/08/05 00:42:55;;;;;;;8.77;2.67;;;;;;;;;;5014926;28;20054;-76
2022/08/05 00:45:23;;;;;;;7.97;2.13;;;;;;;;;;5019081;28;20089;-77
2022/08/05 00:47:54;;;;;;;7.35;2.55;;;;;;;;;;5023512;28;20058;-77
2022/08/05 00:50:34;;;;;;;8.88;2.10;;;;;;;;;;5025014;28;20057;-77
2022/08/05 00:53:04;;;;;;;6.07;2.00;;;;;;;;;;5012153;28;20054;-76
2022/08/05 00:55:52;;;;;;;8.27;2.25;;;;;;;;;;5013688;28;20061;-77
2022/08/05 00:58:19;;;;;;;9.55;3.03;;;;;;;;;;5022848;28;20056;-78
2022/08/05 01:00:53;;;;;;;5.60;2.20;;;;;;;;;;5022774;28;20057;-78
2022/08/05 01:03:24;;;;;;;12.23;2.50;;;;;;;;;;5017522;28;20104;-77
2022/08/05 01:06:00;;;;;;;9.75;2.30;;;;;;;;;;5020559;28;20057;-77
2022/08/05 01:08:30;;;;;;;10.73;2.60;;;;;;;;;;5019347;28;20058;-77
2022/08/05 01:11:12;;;;;;;6.60;1.95;;;;;;;;;;5018263;28;20055;-79
2022/08/05 01:13:52;;;;;;;10.80;2.58;;;;;;;;;;5017454;28;20065;-77
2022/08/05 01:16:48;;;;;;;6.72;2.33;;;;;;;;;;5014273;28;20054;-76
2022/08/05 01:19:25;;;;;;;7.90;2.03;;;;;;;;;;5017518;28;20145;-77
2022/08/05 01:22:13;;;;;;;8.45;2.20;;;;;;;;;;5016440;28;20104;-77
2022/08/05 01:24:49;;;;;;;7.97;2.53;;;;;;;;;;5017085;28;20054;-77
2022/08/05 01:27:39;;;;;;;7.35;2.10;;;;;;;;;;5012096;28;20197;-77
2022/08/05 01:30:22;;;;;;;8.95;2.17;;;;;;;;;;5020247;28;20097;-77
2022/08/05 01:33:03;;;;;;;7.45;2.08;;;;;;;;;;5023850;28;20140;-77
2022/08/05 01:35:33;;;;;;;11.65;2.20;;;;;;;;;;5018715;28;20061;-77
2022/08/05 01:38:20;;;;;;;9.10;2.10;;;;;;;;;;5018173;28;20050;-77
2022/08/05 01:40:55;;;;;;;7.45;2.60;;;;;;;;;;5018443;28;20081;-77
2022/08/05 01:43:23;;;;;;;9.73;2.58;;;;;;;;;;5021396;28;20054;-77
2022/08/05 01:45:52;;;;;;;7.25;1.85;;;;;;;;;;5022319;28;20148;-77
2022/08/05 01:48:23;;;;;;;8.03;2.30;;;;;;;;;;5019397;28;20054;-78
2022/08/05 01:50:51;;;;;;;6.50;2.28;;;;;;;;;;5021252;28;20058;-78
2022/08/05 01:53:20;;;;;;;6.13;1.90;;;;;;;;;;5012330;28;20084;-78
2022/08/05 01:56:08;;;;;;;9.02;2.03;;;;;;;;;;5018855;28;20050;-77
2022/08/05 01:58:36;;;;;;;8.40;2.08;;;;;;;;;;5020632;28;20050;-77
2022/08/05 02:01:12;;;;;;;7.18;1.90;;;;;;;;;;5017503;28;20050;-78
2022/08/05 02:03:47;;;;;;;8.02;1.92;;;;;;;;;;5021734;28;20057;-78
2022/08/05 02:06:16;;;;;;;7.45;2.05;;;;;;;;;;5017689;28;20135;-78
2022/08/05 02:09:12;;;;;;;12.43;2.05;;;;;;;;;;5014383;28;20054;-77
2022/08/05 02:12:03;;;;;;;11.75;2.20;;;;;;;;;;5015145;28;20050;-78
2022/08/05 02:14:31;;;;;;;7.32;1.80;;;;;;;;;;5017504;28;20137;-77
2022/08/05 02:17:12;;;;;;;8.88;1.95;;;;;;;;;;5015528;28;20073;-76
2022/08/05 02:20:01;;;;;;;7.15;1.90;;;;;;;;;;5018640;28;20057;-78
2022/08/05 02:22:38;;;;;;;9.15;2.55;;;;;;;;;;5021180;28;20074;-78
2022/08/05 02:25:13;;;;;;;6.05;1.90;;;;;;;;;;5016179;28;20063;-78
2022/08/05 02:27:41;;;;;;;8.30;2.33;;;;;;;;;;5010864;28;20064;-78
2022/08/05 02:30:27;;;;;;;12.25;2.50;;;;;;;;;;5017077;28;20064;-77
2022/08/05 02:32:58;;;;;;;8.50;2.20;;;;;;;;;;5019629;28;20054;-78
2022/08/05 02:35:27;;;;;;;7.88;2.10;;;;;;;;;;5018353;28;20104;-77
2022/08/05 02:38:04;;;;;;;10.07;2.10;;;;;;;;;;5017948;28;20145;-78
2022/08/05 02:40:36;;;;;;;4.88;1.70;;;;;;;;;;5024724;28;20061;-78
2022/08/05 02:43:03;;;;;;;4.13;1.60;;;;;;;;;;5012963;28;20141;-78
2022/08/05 02:45:33;;;;;;;15.13;2.33;;;;;;;;;;5014383;28;20058;-78
2022/08/05 02:48:19;;;;;;;10.48;2.00;;;;;;;;;;5019518;28;20073;-77
2022/08/05 02:50:56;;;;;;;8.57;2.08;;;;;;;;;;5016603;28;20081;-78
2022/08/05 02:53:23;;;;;;;9.63;1.95;;;;;;;;;;5018649;28;20050;-78
2022/08/05 02:55:55;;;;;;;12.05;2.20;;;;;;;;;;5011507;28;20046;-78
2022/08/05 02:58:28;;;;;;;10.98;2.25;;;;;;;;;;5017312;28;20137;-79
2022/08/05 03:00:58;;;;;;;8.35;2.10;;;;;;;;;;5010365;28;20065;-78
2022/08/05 03:03:28;;;;;;;10.73;2.35;;;;;;;;;;5024017;28;20062;-77
2022/08/05 03:06:16;;;;;;;5.95;1.95;;;;;;;;;;5018221;28;20705;-78
2022/08/05 03:09:08;;;;;;;10.20;2.17;;;;;;;;;;5022932;28;20054;-79
2022/08/05 03:11:42;;;;;;;7.93;2.20;;;;;;;;;;5019466;28;20054;-77
2022/08/05 03:14:24;;;;;;;7.90;2.20;;;;;;;;;;5020345;28;20606;-78
2022/08/05 03:16:52;;;;;;;8.65;2.25;;;;;;;;;;5024427;28;20819;-78
2022/08/05 03:19:19;;;;;;;6.80;2.03;;;;;;;;;;5022972;28;20080;-79
2022/08/05 03:22:00;;;;;;;5.93;2.03;;;;;;;;;;5021598;28;20764;-78
2022/08/05 03:24:30;;;;;;;8.95;2.40;;;;;;;;;;5024888;28;20046;-78
2022/08/05 03:27:01;;;;;;;11.77;2.85;;;;;;;;;;5021238;28;20134;-78
2022/08/05 03:29:28;;;;;;;7.78;2.20;;;;;;;;;;5023125;28;20056;-77
2022/08/05 03:32:16;;;;;;;6.97;1.90;;;;;;;;;;5017603;28;20823;-78
2022/08/05 03:34:45;;;;;;;11.10;2.65;;;;;;;;;;5012320;28;20058;-79
2022/08/05 03:37:17;;;;;;;10.35;2.33;;;;;;;;;;5022750;28;20074;-78
2022/08/05 03:39:51;;;;;;;6.50;2.13;;;;;;;;;;5014340;28;20072;-79
2022/08/05 03:42:27;;;;;;;8.95;2.08;;;;;;;;;;5016543;28;20843;-78
2022/08/05 03:44:58;;;;;;;6.38;2.10;;;;;;;;;;5024671;28;20058;-78
2022/08/05 03:47:27;;;;;;;6.78;2.00;;;;;;;;;;5018240;28;20054;-78
2022/08/05 03:50:01;;;;;;;8.93;2.30;;;;;;;;;;5019770;28;20054;-78
2022/08/05 03:52:32;;;;;;;5.15;1.92;;;;;;;;;;5018640;28;20048;-78
2022/08/05 03:55:33;;;;;;;5.13;1.75;;;;;;;;;;5017788;28;20112;-78
2022/08/05 03:58:22;;;;;;;6.65;2.33;;;;;;;;;;5018067;28;20500;-78
2022/08/05 04:00:57;;;;;;;6.80;2.08;;;;;;;;;;5021943;28;20570;-79
2022/08/05 04:03:26;;;;;;;7.40;2.20;;;;;;;;;;5019257;28;20062;-79
2022/08/05 04:05:56;;;;;;;13.50;2.60;;;;;;;;;;5021707;28;20053;-78
2022/08/05 04:08:24;;;;;;;7.45;2.38;;;;;;;;;;5016163;28;20046;-79
2022/08/05 04:11:03;;;;;;;5.65;2.25;;;;;;;;;;5015954;28;20736;-79
2022/08/05 04:13:30;;;;;;;6.28;2.00;;;;;;;;;;5013204;28;20725;-78
2022/08/05 04:16:18;;;;;;;8.35;2.55;;;;;;;;;;5017464;28;20050;-78
2022/08/05 04:18:51;;;;;;;8.07;2.50;;;;;;;;;;5020843;28;20050;-78
2022/08/05 04:21:20;;;;;;;9.23;2.70;;;;;;;;;;5022389;28;20105;-79
2022/08/05 04:24:08;;;;;;;7.97;2.47;;;;;;;;;;5022046;28;20885;-78
2022/08/05 04:26:46;;;;;;;9.30;2.67;;;;;;;;;;5017053;28;20069;-79
2022/08/05 04:29:13;;;;;;;9.90;2.40;;;;;;;;;;5019749;28;20053;-78
2022/08/05 04:31:41;;;;;;;7.38;2.33;;;;;;;;;;5017518;28;20050;-78
2022/08/05 04:34:09;;;;;;;6.10;2.13;;;;;;;;;;5021630;28;20941;-78
2022/08/05 04:36:56;;;;;;;11.77;2.30;;;;;;;;;;5020861;28;20504;-77
2022/08/05 04:39:23;;;;;;;8.32;2.20;;;;;;;;;;5015494;28;20050;-79
2022/08/05 04:41:53;;;;;;;10.15;2.42;;;;;;;;;;5017828;28;20054;-79
2022/08/05 04:44:21;;;;;;;5.80;2.30;;;;;;;;;;5020717;28;20046;-78
2022/08/05 04:46:59;;;;;;;9.23;2.20;;;;;;;;;;5015703;28;20138;-78
2022/08/05 04:49:36;;;;;;;5.68;2.05;;;;;;;;;;5019350;28;20898;-79
2022/08/05 04:52:23;;;;;;;8.77;2.58;;;;;;;;;;5023137;28;20050;-78
2022/08/05 04:54:54;;;;;;;5.47;2.22;;;;;;;;;;5017124;28;20056;-79
2022/08/05 04:57:24;;;;;;;6.05;2.35;;;;;;;;;;5019657;28;20058;-78
2022/08/05 04:59:55;;;;;;;6.82;2.00;;;;;;;;;;5016345;28;20106;-77
2022/08/05 05:02:24;;;;;;;6.97;2.50;;;;;;;;;;5023720;28;20110;-79
2022/08/05 05:05:04;;;;;;;10.52;2.92;;;;;;;;;;5018731;28;20132;-79
2022/08/05 05:07:52;;;;;;;7.15;2.08;;;;;;;;;;5024618;28;20766;-77
2022/08/05 05:10:27;;;;;;;7.88;2.33;;;;;;;;;;5024443;28;20058;-78
2022/08/05 05:12:56;;;;;;;7.63;2.55;;;;;;;;;;5020866;28;21298;-78
2022/08/05 05:15:24;;;;;;;4.38;2.67;;;;;;;;;;5024338;28;20559;-78
2022/08/05 05:18:19;;;;;;;8.57;2.97;;;;;;;;;;5017988;28;20061;-79
2022/08/05 05:20:57;;;;;;;10.20;2.90;;;;;;;;;;5022978;28;20073;-79
2022/08/05 05:23:24;;;;;;;6.38;2.47;;;;;;;;;;5019649;28;20149;-78
2022/08/05 05:25:52;;;;;;;6.57;2.50;;;;;;;;;;5015610;28;20045;-78
2022/08/05 05:28:19;;;;;;;7.35;2.58;;;;;;;;;;5019537;28;20893;-79
2022/08/05 05:30:46;;;;;;;8.30;2.60;;;;;;;;;;5021492;28;20133;-78
2022/08/05 05:33:15;;;;;;;7.25;2.88;;;;;;;;;;5016839;28;20045;-78
2022/08/05 05:35:49;;;;;;;11.07;2.55;;;;;;;;;;5018741;28;20046;-78
2022/08/05 05:38:17;;;;;;;6.82;2.40;;;;;;;;;;5021793;28;20551;-78
2022/08/05 05:40:52;;;;;;;8.35;2.05;;;;;;;;;;5025377;28;20050;-78
2022/08/05 05:43:21;;;;;;;4.93;2.08;;;;;;;;;;5036311;28;20108;-78
2022/08/05 05:46:08;;;;;;;5.13;2.05;;;;;;;;;;5021799;28;20064;-78
2022/08/05 05:48:42;;;;;;;5.82;1.98;;;;;;;;;;5018488;28;20060;-78
2022/08/05 05:51:10;;;;;;;3.92;1.70;;;;;;;;;;5014711;28;20150;-78
2022/08/05 05:53:41;;;;;;;4.07;1.60;;;;;;;;;;5019540;28;20053;-79
2022/08/05 05:56:28;;;;;;;5.57;1.65;;;;;;;;;;5018951;28;20058;-77
2022/08/05 05:59:06;;;;;;;4.60;1.60;;;;;;;;;;5019745;28;20085;-77
2022/08/05 06:01:35;;;;;;;5.88;1.80;;;;;;;;;;5012506;28;20950;-78
2022/08/05 06:04:08;;;;;;;1.80;1.20;;;;;;;;;;5015468;28;20074;-77
2022/08/05 06:06:38;;;;;;;4.10;1.35;;;;;;;;;;5019150;28;20054;-78
2022/08/05 06:09:08;;;;;;;3.72;1.40;;;;;;;;;;5016016;28;20065;-76
2022/08/05 06:11:51;;;;;;;4.65;1.80;;;;;;;;;;5019797;28;20140;-77
2022/08/05 06:14:29;;;;;;;3.60;1.35;;;;;;;;;;5013612;28;20051;-78
2022/08/05 06:16:57;;;;;;;4.30;1.30;;;;;;;;;;5019704;28;20121;-78
2022/08/05 06:19:25;;;;;;;3.42;1.50;;;;;;;;;;5016047;28;20960;-78
2022/08/05 06:22:04;;;;;;;4.72;1.77;;;;;;;;;;5019141;28;20176;-78
2022/08/05 06:24:35;;;;;;;2.10;1.20;;;;;;;;;;5019365;28;20054;-77
2022/08/05 06:27:03;;;;;;;5.40;1.55;;;;;;;;;;5016976;28;20080;-78
2022/08/05 06:29:43;;;;;;;3.63;1.23;;;;;;;;;;5017613;28;20050;-78
2022/08/05 06:32:30;;;;;;;4.07;1.38;;;;;;;;;;5016734;28;20057;-78
2022/08/05 06:34:57;;;;;;;5.50;1.25;;;;;;;;;;5017489;28;20153;-77
2022/08/05 06:37:26;;;;;;;5.38;1.30;;;;;;;;;;5020036;28;20120;-77
2022/08/05 06:40:14;;;;;;;2.30;1.30;;;;;;;;;;5021214;28;20058;-77
2022/08/05 06:42:48;;;;;;;2.15;1.17;;;;;;;;;;5022800;28;20103;-78
2022/08/05 06:45:19;;;;;;;7.78;1.30;;;;;;;;;;5016875;28;20077;-78
2022/08/05 06:48:09;;;;;;;4.30;1.45;;;;;;;;;;5014595;28;20460;-77
2022/08/05 06:50:57;;;;;;;5.07;1.40;;;;;;;;;;5013645;28;20133;-79
2022/08/05 06:53:26;;;;;;;4.57;1.30;;;;;;;;;;5015781;28;20050;-78
2022/08/05 06:55:54;;;;;;;5.07;1.20;;;;;;;;;;5015731;28;20082;-78
2022/08/05 06:58:22;;;;;;;6.05;1.20;;;;;;;;;;5015639;28;20050;-77
2022/08/05 07:01:02;;;;;;;5.32;1.13;;;;;;;;;;5019541;28;20050;-78
2022/08/05 07:03:31;;;;;;;5.85;1.30;;;;;;;;;;5011202;28;20054;-78
2022/08/05 07:06:01;;;;;;;2.83;1.20;;;;;;;;;;5015783;28;20042;-77
2022/08/05 07:08:43;;;;;;;3.63;1.25;;;;;;;;;;5016385;28;20159;-76
2022/08/05 07:11:17;;;;;;;3.85;1.30;;;;;;;;;;5017637;28;20109;-76
2022/08/05 07:16:59;;;;;;;7.32;1.35;;;;;;;;;;5013090;28;20157;-76
2022/08/05 07:19:47;;;;;;;3.78;1.20;;;;;;;;;;5014201;28;20056;-76
2022/08/05 07:22:34;;;;;;;3.22;1.30;;;;;;;;;;5012895;28;20050;-77
2022/08/05 07:25:01;;;;;;;2.90;1.10;;;;;;;;;;5016122;28;20058;-77
2022/08/05 07:27:50;;;;;;;4.95;1.10;;;;;;;;;;5010263;28;20059;-75
2022/08/05 07:30:30;;;;;;;2.35;1.00;;;;;;;;;;5018879;28;20045;-76
2022/08/05 07:33:10;;;;;;;2.25;0.88;;;;;;;;;;5023174;28;20045;-75
2022/08/05 07:35:43;;;;;;;;;;;;;;;;;;5031210;28;20053;-76
2022/08/05 07:38:30;;;;;;;4.13;1.30;;;;;;;;;;5022785;28;19946;-76
2022/08/05 07:41:15;;;;;;;1.33;0.90;;;;;;;;;;5028649;28;20038;-76
2022/08/05 07:44:03;;;;;;;1.30;0.70;;;;;;;;;;5023173;28;20093;-76
2022/08/05 07:46:31;;;;;;;4.75;1.20;;;;;;;;;;5023789;28;20839;-76
2022/08/05 07:49:00;;;;;;;2.75;0.90;;;;;;;;;;5028359;28;20053;-75
2022/08/05 07:51:33;;;;;;;3.53;1.10;;;;;;;;;;5030823;28;20101;-76
2022/08/05 07:54:07;;;;;;;4.57;0.80;;;;;;;;;;5036935;28;20068;-77
2022/08/05 07:56:37;;;;;;;2.15;0.95;;;;;;;;;;5027016;28;20103;-76
2022/08/05 07:59:24;;;;;;;3.90;0.93;;;;;;;;;;5032705;28;20042;-76
2022/08/05 08:02:07;;;;;;;2.80;0.80;;;;;;;;;;5024717;28;20062;-77
2022/08/05 08:04:43;;;;;;;1.20;0.60;;;;;;;;;;5024432;28;20265;-76
2022/08/05 08:07:11;;;;;;;3.05;0.90;;;;;;;;;;5031734;28;20946;-76
2022/08/05 08:09:38;;;;;;;2.00;0.77;;;;;;;;;;5019387;28;20939;-76
2022/08/05 08:12:06;;;;;;;2.35;1.00;;;;;;;;;;5029307;28;20039;-77
2022/08/05 08:14:53;;;;;;;4.53;0.80;;;;;;;;;;5029380;28;20051;-76
2022/08/05 08:17:20;;;;;;;3.05;0.85;;;;;;;;;;5030773;28;20036;-76
2022/08/05 08:19:49;;;;;;;5.07;1.08;;;;;;;;;;5023433;28;20042;-76
2022/08/05 08:22:36;;;;;;;4.60;0.90;;;;;;;;;;5032427;28;20084;-76
2022/08/05 08:25:04;;;;;;;1.55;0.90;;;;;;;;;;5035192;28;20052;-76
2022/08/05 08:27:44;;;;;;;2.58;0.70;;;;;;;;;;5036443;28;20072;-76
2022/08/05 08:30:17;;;;;;;1.60;0.68;;;;;;;;;;5029477;28;20149;-78
2022/08/05 08:33:11;;;;;;;1.88;0.60;;;;;;;;;;5035940;28;20064;-78
2022/08/05 08:35:43;;;;;;;1.90;0.80;;;;;;;;;;5038870;28;20041;-78
2022/08/05 08:38:23;;;;;;;2.95;0.70;;;;;;;;;;5023759;28;20113;-77
2022/08/05 08:41:04;;;;;;;1.40;0.60;;;;;;;;;;5034776;28;20108;-79
2022/08/05 08:43:33;;;;;;;0.63;0.50;;;;;;;;;;5024485;28;20055;-77
2022/08/05 08:46:20;;;;;;;2.25;0.70;;;;;;;;;;5024543;28;20481;-78
2022/08/05 08:48:49;;;;;;;4.30;0.68;;;;;;;;;;5020731;28;20915;-78
2022/08/05 08:51:37;;;;;;;2.83;0.68;;;;;;;;;;5022606;28;20515;-82
2022/08/05 08:54:25;;;;;;;2.95;0.80;;;;;;;;;;5025101;28;20054;-80
2022/08/05 08:56:53;;;;;;;2.70;0.82;;;;;;;;;;5022958;28;20093;-78
2022/08/05 08:59:26;;;;;;;2.30;0.70;;;;;;;;;;5034874;28;20057;-80
2022/08/05 09:02:00;;;;;;;1.00;0.70;;;;;;;;;;5018787;28;20045;-82
2022/08/05 09:04:28;;;;;;;1.25;0.70;;;;;;;;;;5015169;28;20081;-78
2022/08/05 09:06:56;;;;;;;3.80;0.90;;;;;;;;;;5032817;28;20054;-79
2022/08/05 09:09:24;;;;;;;0.85;0.70;;;;;;;;;;5019236;28;20065;-77
2022/08/05 09:12:02;;;;;;;1.95;0.70;;;;;;;;;;5022231;28;20057;-78
2022/08/05 09:14:47;;;;;;;3.00;0.98;;;;;;;;;;5025742;28;20089;-79
2022/08/05 09:17:25;;;;;;;1.73;0.52;;;;;;;;;;5031467;28;20411;-77
2022/08/05 09:20:12;;;;;;;2.10;0.70;;;;;;;;;;5028218;28;20046;-80
2022/08/05 09:23:11;;;;;;;0.80;0.60;;;;;;;;;;5028655;28;20141;-79
2022/08/05 09:25:48;;;;;;;1.67;0.82;;;;;;;;;;5022863;28;20046;-79
2022/08/05 09:28:31;;;;;;;1.80;0.80;;;;;;;;;;5017407;28;20125;-79
2022/08/05 09:31:08;;;;;;;1.77;0.73;;;;;;;;;;5023366;28;20061;-78
2022/08/05 09:33:57;;;;;;;2.28;0.85;;;;;;;;;;5018545;28;20074;-79
2022/08/05 09:36:38;;;;;;;1.90;0.70;;;;;;;;;;5018738;28;20054;-79
2022/08/05 09:39:23;;;;;;;2.58;0.70;;;;;;;;;;5023836;28;20105;-78
2022/08/05 09:42:10;;;;;;;2.20;0.80;;;;;;;;;;5021921;28;20065;-79
2022/08/05 09:44:50;;;;;;;2.42;0.70;;;;;;;;;;5025551;28;20133;-78
2022/08/05 09:47:19;;;;;;;1.25;0.70;;;;;;;;;;5018391;28;20153;-78
2022/08/05 09:49:48;;;;;;;4.43;0.68;;;;;;;;;;5021543;28;20113;-79
2022/08/05 09:52:35;;;;;;;1.90;0.60;;;;;;;;;;5023012;28;20125;-79
2022/08/05 09:55:11;;;;;;;3.50;0.65;;;;;;;;;;5017181;28;20054;-79
2022/08/05 09:57:59;;;;;;;1.90;0.60;;;;;;;;;;5021707;28;20121;-78
2022/08/05 10:00:27;;;;;;;2.25;0.65;;;;;;;;;;5025737;28;20058;-80
2022/08/05 10:02:57;;;;;;;5.10;0.70;;;;;;;;;;5018952;28;20120;-78
2022/08/05 10:05:26;;;;;;;1.42;0.60;;;;;;;;;;5018921;28;20179;-79
2022/08/05 10:07:55;;;;;;;1.42;0.57;;;;;;;;;;5035076;28;20145;-80
2022/08/05 10:10:47;;;;;;;1.40;0.60;;;;;;;;;;5028799;28;20050;-79
2022/08/05 10:13:30;;;;;;;1.85;0.50;;;;;;;;;;5021641;28;20049;-78
2022/08/05 10:16:31;;;;;;;3.92;0.80;;;;;;;;;;5016000;28;20144;-80
2022/08/05 10:19:03;;;;;;;2.38;0.80;;;;;;;;;;5023016;28;20061;-78
2022/08/05 10:21:35;;;;;;;4.05;0.60;;;;;;;;;;5018397;28;20058;-77
2022/08/05 10:24:08;;;;;;;0.75;0.43;;;;;;;;;;5018935;28;20457;-79
2022/08/05 10:26:37;;;;;;;5.95;0.80;;;;;;;;;;5016492;28;20065;-79
2022/08/05 10:29:23;;;;;;;2.50;0.50;;;;;;;;;;5023316;28;20061;-79
2022/08/05 10:32:11;;;;;;;2.95;0.70;;;;;;;;;;5024375;28;20050;-79
2022/08/05 10:34:58;;;;;;;2.90;0.60;;;;;;;;;;5023927;28;20061;-79
2022/08/05 10:37:29;;;;;;;1.65;0.70;;;;;;;;;;5022727;28;20145;-78
2022/08/05 10:40:18;;;;;;;3.70;0.70;;;;;;;;;;5020680;28;20406;-76
2022/08/05 10:42:55;;;;;;;2.60;0.65;;;;;;;;;;5014611;28;20050;-78
2022/08/05 10:45:26;;;;;;;2.83;0.60;;;;;;;;;;5018250;28;20046;-77
2022/08/05 10:48:28;;;;;;;1.52;0.68;;;;;;;;;;5020921;28;20057;-79
2022/08/05 10:51:07;;;;;;;4.28;0.90;;;;;;;;;;5035853;28;20107;-79
2022/08/05 10:53:59;;;;;;;1.55;0.63;;;;;;;;;;5020065;28;20089;-77
2022/08/05 10:56:29;;;;;;;1.80;0.60;;;;;;;;;;5021210;28;20811;-76
2022/08/05 10:59:00;;;;;;;1.55;0.50;;;;;;;;;;5014750;28;20109;-77
2022/08/05 11:01:45;;;;;;;1.20;0.50;;;;;;;;;;5018568;28;20138;-79
2022/08/05 11:04:31;;;;;;;0.47;0.45;;;;;;;;;;5017184;28;20081;-78
2022/08/05 11:07:07;;;;;;;3.50;0.80;;;;;;;;;;5012719;28;20077;-77
2022/08/05 11:09:39;;;;;;;1.25;0.65;;;;;;;;;;5016869;28;20197;-77
2022/08/05 11:12:31;;;;;;;1.75;0.50;;;;;;;;;;5018906;28;20054;-78
2022/08/05 11:15:18;;;;;;;1.17;0.70;;;;;;;;;;5046815;28;20049;-78
2022/08/05 11:17:51;;;;;;;1.77;0.70;;;;;;;;;;5026167;28;20129;-78
2022/08/05 11:20:43;;;;;;;2.45;0.68;;;;;;;;;;5027872;28;20054;-80
2022/08/05 11:23:30;;;;;;;5.55;0.70;;;;;;;;;;5018951;28;20050;-79
2022/08/05 11:26:21;;;;;;;2.40;0.65;;;;;;;;;;5022589;28;20050;-80
2022/08/05 11:28:58;;;;;;;2.75;0.57;;;;;;;;;;5027168;28;20053;-80
2022/08/05 11:31:43;;;;;;;2.28;0.77;;;;;;;;;;5027675;28;20509;-78
2022/08/05 11:34:45;;;;;;;3.60;0.60;;;;;;;;;;5020102;28;20093;-77
2022/08/05 11:37:38;;;;;;;1.55;0.52;;;;;;;;;;5020525;28;20137;-79
2022/08/05 11:40:44;;;;;;;2.08;0.52;;;;;;;;;;5020103;28;20085;-79
2022/08/05 11:43:20;;;;;;;1.23;0.82;;;;;;;;;;5030102;28;20077;-79
2022/08/05 11:46:08;;;;;;;3.03;0.60;;;;;;;;;;5043501;28;20724;-81
2022/08/05 11:48:56;;;;;;;2.92;0.68;;;;;;;;;;5037455;28;20112;-79
2022/08/05 11:51:26;;;;;;;3.60;0.50;;;;;;;;;;5024517;28;20057;-79
2022/08/05 11:54:20;;;;;;;4.38;0.57;;;;;;;;;;5021234;28;20054;-79
2022/08/05 11:57:00;;;;;;;0.98;0.50;;;;;;;;;;5030862;28;20054;-78
2022/08/05 11:59:48;;;;;;;1.40;0.70;;;;;;;;;;5025432;28;20050;-78
2022/08/05 12:02:17;;;;;;;1.80;0.65;;;;;;;;;;5045314;28;20054;-79
2022/08/05 12:04:57;;;;;;;8.35;0.70;;;;;;;;;;5040862;28;20042;-79
2022/08/05 12:07:26;;;;;;;2.03;0.43;;;;;;;;;;5023390;28;20105;-79
2022/08/05 12:10:17;;;;;;;3.00;0.60;;;;;;;;;;5028548;28;20060;-79
2022/08/05 12:12:45;;;;;;;1.27;0.57;;;;;;;;;;5028344;28;20462;-80
2022/08/05 12:15:26;;;;;;;1.55;0.60;;;;;;;;;;5028374;28;20217;-79
2022/08/05 12:18:04;;;;;;;1.42;0.60;;;;;;;;;;5028560;28;20058;-80
2022/08/05 12:20:38;;;;;;;3.42;0.80;;;;;;;;;;5025393;28;20571;-79
2022/08/05 12:23:08;;;;;;;1.42;0.60;;;;;;;;;;5015137;28;20105;-79
2022/08/05 12:25:48;;;;;;;1.77;0.60;;;;;;;;;;5022195;28;20137;-79
2022/08/05 12:28:31;;;;;;;5.00;0.73;;;;;;;;;;5019216;28;20112;-79
2022/08/05 12:30:59;;;;;;;1.08;0.70;;;;;;;;;;5023062;28;20077;-79
2022/08/05 12:33:28;;;;;;;1.83;0.60;;;;;;;;;;5024433;28;20058;-79
2022/08/05 12:36:05;;;;;;;1.77;0.70;;;;;;;;;;5017285;28;20057;-81
2022/08/05 12:38:37;;;;;;;1.02;0.60;;;;;;;;;;5018328;28;20085;-81
2022/08/05 12:41:10;;;;;;;1.55;0.75;;;;;;;;;;5024371;28;20108;-80
2022/08/05 12:43:53;;;;;;;1.13;0.60;;;;;;;;;;5020071;28;20051;-81
2022/08/05 12:46:29;;;;;;;2.90;0.60;;;;;;;;;;5013175;28;20483;-82
2022/08/05 12:48:58;;;;;;;2.30;1.00;;;;;;;;;;5015126;28;20137;-80
2022/08/05 12:51:26;;;;;;;3.40;0.60;;;;;;;;;;5034375;28;20097;-80
2022/08/05 12:54:24;;;;;;;1.58;0.70;;;;;;;;;;5024051;28;20054;-80
2022/08/05 12:56:52;;;;;;;1.95;0.65;;;;;;;;;;5019892;28;20054;-82
2022/08/05 12:59:21;;;;;;;0.80;0.50;;;;;;;;;;5013115;28;20128;-83
2022/08/05 13:02:08;;;;;;;3.03;0.90;;;;;;;;;;5016536;28;20046;-83
2022/08/05 13:04:40;;;;;;;2.90;0.85;;;;;;;;;;5018687;28;20082;-81
2022/08/05 13:07:22;;;;;;;2.17;0.70;;;;;;;;;;5023408;28;20053;-82
2022/08/05 13:10:10;;;;;;;3.65;0.65;;;;;;;;;;5019214;28;20062;-82
2022/08/05 13:12:41;;;;;;;4.95;1.25;;;;;;;;;;5024958;28;20042;-81
2022/08/05 13:15:30;;;;;;;2.28;0.70;;;;;;;;;;5022552;28;20135;-81
2022/08/05 13:18:17;;;;;;;5.82;1.33;;;;;;;;;;5012461;28;20061;-83
2022/08/05 13:20:46;;;;;;;2.17;0.82;;;;;;;;;;5020562;28;20128;-82
2022/08/05 13:23:15;;;;;;;5.38;0.80;;;;;;;;;;5019361;28;20116;-82
2022/08/05 13:25:50;;;;;;;3.08;0.93;;;;;;;;;;5014750;28;20055;-81
2022/08/05 13:28:27;;;;;;;4.63;0.90;;;;;;;;;;5021648;28;20049;-81
2022/08/05 13:30:54;;;;;;;4.68;0.82;;;;;;;;;;5015711;28;20074;-81
2022/08/05 13:33:23;;;;;;;4.35;0.85;;;;;;;;;;5019384;28;20046;-81
2022/08/05 13:36:12;;;;;;;3.03;1.02;;;;;;;;;;5015664;28;20065;-81
2022/08/05 13:38:40;;;;;;;2.10;0.90;;;;;;;;;;5015857;28;20105;-84
2022/08/05 13:41:14;;;;;;;5.90;1.05;;;;;;;;;;5019092;28;20042;-83
2022/08/05 13:43:43;;;;;;;4.05;1.02;;;;;;;;;;5019705;28;20128;-81
2022/08/05 13:46:23;;;;;;;2.97;0.70;;;;;;;;;;5017428;28;20054;-81
2022/08/05 13:49:11;;;;;;;3.95;0.70;;;;;;;;;;5020028;28;20056;-81
2022/08/05 13:51:39;;;;;;;3.15;0.70;;;;;;;;;;5019068;28;20049;-81
2022/08/05 13:54:10;;;;;;;2.63;0.80;;;;;;;;;;5015767;28;20113;-81
2022/08/05 13:56:41;;;;;;;4.97;1.23;;;;;;;;;;5018339;28;20046;-79
2022/08/05 13:59:18;;;;;;;2.47;0.80;;;;;;;;;;5023629;28;20050;-81
2022/08/05 14:01:46;;;;;;;4.70;0.93;;;;;;;;;;5014597;28;20076;-81
2022/08/05 14:07:21;;;;;;;4.75;0.90;;;;;;;;;;5025160;28;20065;-79
2022/08/05 14:10:10;;;;;;;2.67;0.82;;;;;;;;;;5028729;28;20062;-79
2022/08/05 14:12:37;;;;;;;2.13;0.63;;;;;;;;;;5025771;28;20057;-80
2022/08/05 14:15:05;;;;;;;1.42;0.52;;;;;;;;;;5024394;28;20053;-79
2022/08/05 14:17:52;;;;;;;1.35;0.50;;;;;;;;;;5017629;28;20050;-79
2022/08/05 14:20:26;;;;;;;3.03;0.70;;;;;;;;;;5023794;28;20062;-77
2022/08/05 14:22:53;;;;;;;0.63;0.50;;;;;;;;;;5028199;28;20071;-77
2022/08/05 14:25:21;;;;;;;1.83;0.60;;;;;;;;;;5016931;28;20050;-78
2022/08/05 14:27:54;;;;;;;0.88;0.43;;;;;;;;;;5018263;28;20136;-79
2022/08/05 14:30:24;;;;;;;1.67;0.50;;;;;;;;;;5020924;28;20042;-78
2022/08/05 14:32:54;;;;;;;2.83;0.60;;;;;;;;;;5024020;28;20046;-79
2022/08/05 14:35:23;;;;;;;1.85;0.90;;;;;;;;;;5033683;28;20101;-79
2022/08/05 14:38:10;;;;;;;2.17;0.57;;;;;;;;;;5031554;28;20812;-78
2022/08/05 14:40:57;;;;;;;1.23;0.93;;;;;;;;;;5024114;28;20101;-79
2022/08/05 14:43:24;;;;;;;2.85;0.75;;;;;;;;;;5031174;28;20066;-79
2022/08/05 14:46:11;;;;;;;3.05;0.50;;;;;;;;;;5021873;28;20042;-79
2022/08/05 14:48:38;;;;;;;3.67;0.60;;;;;;;;;;5026075;28;20029;-78
2022/08/05 14:51:06;;;;;;;5.13;0.80;;;;;;;;;;5027074;28;20047;-78
2022/08/05 14:53:34;;;;;;;1.63;0.55;;;;;;;;;;5026836;28;20046;-78
2022/08/05 14:56:10;;;;;;;1.38;0.82;;;;;;;;;;5020147;28;20109;-77
2022/08/05 14:58:39;;;;;;;0.88;0.50;;;;;;;;;;5029990;28;20030;-79
2022/08/05 15:01:21;;;;;;;1.95;0.80;;;;;;;;;;5021470;28;20082;-80
2022/08/05 15:04:10;;;;;;;5.32;0.63;;;;;;;;;;5027161;28;20463;-79
2022/08/05 15:06:38;;;;;;;4.13;0.93;;;;;;;;;;5023399;28;20503;-79
2022/08/05 15:09:06;;;;;;;3.65;0.63;;;;;;;;;;5025268;28;20141;-79
2022/08/05 15:11:34;;;;;;;2.65;0.77;;;;;;;;;;5026797;28;20512;-78
2022/08/05 15:14:19;;;;;;;0.82;0.60;;;;;;;;;;5024054;28;20054;-78
2022/08/05 15:17:10;;;;;;;1.48;0.80;;;;;;;;;;5031855;28;20082;-77
2022/08/05 15:19:57;;;;;;;1.33;0.65;;;;;;;;;;5025539;28;20109;-78
2022/08/05 15:22:24;;;;;;;2.63;0.75;;;;;;;;;;5027611;28;20100;-77
2022/08/05 15:24:54;;;;;;;4.72;1.05;;;;;;;;;;5025023;28;20058;-79
2022/08/05 15:27:22;;;;;;;4.40;0.95;;;;;;;;;;5030788;28;20074;-78
2022/08/05 15:29:52;;;;;;;3.60;0.88;;;;;;;;;;5031044;28;20050;-79
2022/08/05 15:32:23;;;;;;;3.45;0.80;;;;;;;;;;5026787;28;20050;-79
2022/08/05 15:34:55;;;;;;;3.53;1.00;;;;;;;;;;5026727;28;20937;-79
2022/08/05 15:37:23;;;;;;;3.33;0.90;;;;;;;;;;5024009;28;20317;-78
2022/08/05 15:40:11;;;;;;;2.00;0.85;;;;;;;;;;5032316;28;20073;-77
2022/08/05 15:42:58;;;;;;;3.92;1.00;;;;;;;;;;5024548;28;20054;-78
2022/08/05 15:45:41;;;;;;;;;;;;;;;;;;5037990;28;20080;-79